createdAt,value
2022-12-03T00:01:04.732Z,78.32
2022-12-03T00:06:07.770Z,77.85
2022-12-03T00:11:10.457Z,78.30
2022-12-03T00:16:13.870Z,78.15
2022-12-03T00:21:16.994Z,77.89
2022-12-03T00:26:19.899Z,78.20
2022-12-03T00:31:23.748Z,78.17
2022-12-03T00:36:26.635Z,78.20
2022-12-03T00:41:29.432Z,78.31
2022-12-03T00:46:32.266Z,78.65
2022-12-03T00:51:36.011Z,78.67
2022-12-03T00:56:38.853Z,78.76
2022-12-03T01:01:41.717Z,78.54
2022-12-03T01:06:44.506Z,78.93
2022-12-03T01:11:47.247Z,78.85
2022-12-03T01:16:50.019Z,79.08
2022-12-03T01:21:52.963Z,79.26
2022-12-03T01:26:56.907Z,79.74
2022-12-03T01:32:18.242Z,79.58
2022-12-03T01:37:24.650Z,79.58
2022-12-03T01:42:32.447Z,79.84
2022-12-03T01:47:37.331Z,79.66
2022-12-03T01:52:40.901Z,79.71
2022-12-03T01:57:50.667Z,80.18
2022-12-03T02:03:00.211Z,79.68
2022-12-03T02:08:26.489Z,80.06
2022-12-03T02:13:29.485Z,80.30
2022-12-03T02:18:32.390Z,80.38
2022-12-03T02:24:06.096Z,80.19
2022-12-03T02:29:08.916Z,80.54
2022-12-03T02:34:11.817Z,80.37
2022-12-03T02:39:14.620Z,80.64
2022-12-03T02:44:17.421Z,80.76
2022-12-03T02:49:20.225Z,80.82
2022-12-03T02:54:23.598Z,80.99
2022-12-03T02:59:26.542Z,81.15
2022-12-03T03:04:30.076Z,80.80
2022-12-03T03:09:33.973Z,80.60
2022-12-03T03:14:36.787Z,80.49
2022-12-03T03:19:39.557Z,80.81
2022-12-03T03:24:42.392Z,80.50
2022-12-03T03:29:45.192Z,80.64
2022-12-03T03:34:47.959Z,80.30
2022-12-03T03:39:51.129Z,80.61
2022-12-03T03:44:54.062Z,80.63
2022-12-03T03:49:57.114Z,80.40
2022-12-03T03:54:59.907Z,80.29
2022-12-03T04:00:04.940Z,80.49
2022-12-03T04:05:11.446Z,80.57
2022-12-03T04:10:37.689Z,80.53
2022-12-03T04:15:40.414Z,80.87
2022-12-03T04:20:43.146Z,80.83
2022-12-03T04:26:04.855Z,80.45
2022-12-03T04:31:26.804Z,80.65
2022-12-03T04:36:29.507Z,80.65
2022-12-03T04:41:32.198Z,80.97
2022-12-03T04:46:34.910Z,80.88
2022-12-03T04:51:37.630Z,80.44
2022-12-03T04:56:40.400Z,80.82
2022-12-03T05:01:43.522Z,81.04
2022-12-03T05:06:46.926Z,80.96
2022-12-03T05:11:49.726Z,81.41
2022-12-03T05:16:52.605Z,81.17
2022-12-03T05:21:55.468Z,81.47
2022-12-03T05:26:58.232Z,81.50
2022-12-03T05:32:01.039Z,81.63
2022-12-03T05:37:03.742Z,81.85
2022-12-03T05:42:25.311Z,81.59
2022-12-03T05:47:28.076Z,81.84
2022-12-03T05:52:30.984Z,81.61
2022-12-03T05:57:33.757Z,81.78
2022-12-03T06:02:36.564Z,81.72
2022-12-03T06:07:39.809Z,81.36
2022-12-03T06:12:43.281Z,81.74
2022-12-03T06:17:46.420Z,81.71
2022-12-03T06:22:49.220Z,81.72
2022-12-03T06:27:52.023Z,81.54
2022-12-03T06:32:55.028Z,81.55
2022-12-03T06:37:58.239Z,81.16
2022-12-03T06:43:01.047Z,81.37
2022-12-03T06:48:03.964Z,81.90
2022-12-03T06:53:06.689Z,81.90
2022-12-03T06:58:09.451Z,81.96
2022-12-03T07:03:12.472Z,82.20
2022-12-03T07:08:15.333Z,81.65
2022-12-03T07:13:18.054Z,81.89
2022-12-03T07:18:20.981Z,81.63
2022-12-03T07:23:23.805Z,81.65
2022-12-03T07:28:26.561Z,81.91
2022-12-03T07:33:29.286Z,81.78
2022-12-03T07:38:31.994Z,81.95
2022-12-03T07:43:34.833Z,81.77
2022-12-03T07:48:37.669Z,81.77
2022-12-03T07:53:40.389Z,81.61
2022-12-03T07:58:43.131Z,81.77
2022-12-03T08:03:45.867Z,82.33
2022-12-03T08:08:48.577Z,82.22
2022-12-03T08:13:51.275Z,82.39
2022-12-03T08:18:57.512Z,82.10
2022-12-03T08:24:12.724Z,82.17
2022-12-03T08:29:19.020Z,82.07
2022-12-03T08:34:24.567Z,82.05
2022-12-03T08:39:37.735Z,82.21
2022-12-03T08:44:41.251Z,82.25
2022-12-03T08:49:51.441Z,82.49
2022-12-03T08:54:56.270Z,82.09
2022-12-03T08:59:59.477Z,82.75
2022-12-03T09:05:22.208Z,82.40
2022-12-03T09:10:24.921Z,82.02
2022-12-03T09:15:28.577Z,82.19
2022-12-03T09:20:31.376Z,81.58
2022-12-03T09:25:34.325Z,81.73
2022-12-03T09:30:37.786Z,81.99
2022-12-03T09:35:40.473Z,82.35
2022-12-03T09:40:43.294Z,82.39
2022-12-03T09:45:47.779Z,82.17
2022-12-03T09:50:51.853Z,82.07
2022-12-03T09:56:01.400Z,82.17
2022-12-03T10:01:13.869Z,82.06
2022-12-03T10:06:23.217Z,81.99
2022-12-03T10:11:27.127Z,81.83
2022-12-03T10:16:30.915Z,82.05
2022-12-03T10:21:38.784Z,82.03
2022-12-03T10:26:41.789Z,81.53
2022-12-03T10:31:45.080Z,81.93
2022-12-03T10:36:47.782Z,81.43
2022-12-03T10:41:50.605Z,81.47
2022-12-03T10:47:10.376Z,81.49
2022-12-03T10:52:25.933Z,81.65
2022-12-03T10:57:29.107Z,81.88
2022-12-03T11:02:31.914Z,81.33
2022-12-03T11:07:38.736Z,80.88
2022-12-03T11:12:41.589Z,81.39
2022-12-03T11:17:47.391Z,81.39
2022-12-03T11:22:51.507Z,81.39
2022-12-03T11:28:15.596Z,81.19
2022-12-03T11:33:33.472Z,81.85
2022-12-03T11:38:54.083Z,81.89
2022-12-03T11:43:58.619Z,81.76
2022-12-03T11:49:03.688Z,81.52
2022-12-03T11:54:06.545Z,81.93
2022-12-03T11:59:13.515Z,82.05
2022-12-03T12:04:38.135Z,81.72
2022-12-03T12:09:55.345Z,81.91
2022-12-03T12:14:59.400Z,82.17
2022-12-03T12:20:27.901Z,82.31
2022-12-03T12:25:30.650Z,82.37
2022-12-03T12:30:33.860Z,82.41
2022-12-03T12:35:37.205Z,82.22
2022-12-03T12:40:45.122Z,82.28
2022-12-03T12:45:48.179Z,82.33
2022-12-03T12:51:01.177Z,82.39
2022-12-03T12:56:09.960Z,82.50
2022-12-03T13:01:21.617Z,82.44
2022-12-03T13:06:28.345Z,82.65
2022-12-03T13:11:45.757Z,82.66
2022-12-03T13:16:53.901Z,82.56
2022-12-03T13:22:02.819Z,81.67
2022-12-03T13:27:23.128Z,81.20
2022-12-03T13:32:27.299Z,80.61
2022-12-03T13:37:31.824Z,80.96
2022-12-03T13:42:39.220Z,80.75
2022-12-03T13:47:47.532Z,80.91
2022-12-03T13:52:50.312Z,81.05
2022-12-03T13:57:53.706Z,80.95
2022-12-03T14:02:56.517Z,81.16
2022-12-03T14:08:02.263Z,81.04
2022-12-03T14:13:05.204Z,81.32
2022-12-03T14:18:07.951Z,81.56
2022-12-03T14:23:10.672Z,81.29
2022-12-03T14:28:13.453Z,81.89
2022-12-03T14:33:16.251Z,81.74
2022-12-03T14:38:19.259Z,82.04
2022-12-03T14:43:22.073Z,81.92
2022-12-03T14:48:24.755Z,81.87
2022-12-03T14:53:27.747Z,82.31
2022-12-03T14:58:30.530Z,82.64
2022-12-03T15:03:33.288Z,82.91
2022-12-03T15:08:36.031Z,82.65
2022-12-03T15:13:38.809Z,82.35
2022-12-03T15:18:41.546Z,82.43
2022-12-03T15:23:44.293Z,82.60
2022-12-03T15:28:48.506Z,82.68
2022-12-03T15:33:51.724Z,82.98
2022-12-03T15:38:54.523Z,82.99
2022-12-03T15:43:59.961Z,82.68
2022-12-03T15:49:03.412Z,83.56
2022-12-03T15:54:06.847Z,83.47
2022-12-03T15:59:09.845Z,83.36
2022-12-03T16:04:12.683Z,83.33
2022-12-03T16:09:15.504Z,83.33
2022-12-03T16:14:20.472Z,83.62
2022-12-03T16:19:23.198Z,83.59
2022-12-03T16:24:26.312Z,83.17
2022-12-03T16:29:29.598Z,83.54
2022-12-03T16:34:32.368Z,83.93
2022-12-03T16:39:35.345Z,84.10
2022-12-03T16:44:58.374Z,83.59
2022-12-03T16:50:07.593Z,83.87
2022-12-03T16:55:10.427Z,83.99
2022-12-03T17:00:14.205Z,84.26
2022-12-03T17:05:17.057Z,84.35
2022-12-03T17:10:19.854Z,84.60
2022-12-03T17:15:22.948Z,84.80
2022-12-03T17:20:25.931Z,84.87
2022-12-03T17:25:30.049Z,84.83
2022-12-03T17:30:33.275Z,85.19
2022-12-03T17:35:36.089Z,85.40
2022-12-03T17:40:39.026Z,85.22
2022-12-03T17:45:43.521Z,85.77
2022-12-03T17:50:46.766Z,86.21
2022-12-03T17:55:49.617Z,86.23
2022-12-03T18:00:54.891Z,86.11
2022-12-03T18:06:00.102Z,86.62
2022-12-03T18:11:02.895Z,86.94
2022-12-03T18:16:06.063Z,87.29
2022-12-03T18:21:08.899Z,87.34
2022-12-03T18:26:11.876Z,87.35
2022-12-03T18:31:16.601Z,87.17
2022-12-03T18:36:25.695Z,87.07
2022-12-03T18:41:28.864Z,86.74
2022-12-03T18:46:52.350Z,86.99
2022-12-03T18:51:58.874Z,87.20
2022-12-03T18:57:02.198Z,87.62
2022-12-03T19:02:05.750Z,87.52
2022-12-03T19:07:09.773Z,87.49
2022-12-03T19:12:14.714Z,87.50
2022-12-03T19:17:17.737Z,87.72
2022-12-03T19:22:20.512Z,87.63
2022-12-03T19:27:23.257Z,87.58
2022-12-03T19:32:25.984Z,88.07
2022-12-03T19:37:30.969Z,88.30
2022-12-03T19:42:33.770Z,88.14
2022-12-03T19:47:37.081Z,87.79
2022-12-03T19:52:39.782Z,87.81
2022-12-03T19:57:42.471Z,87.96
2022-12-03T20:02:48.899Z,87.75
2022-12-03T20:07:51.748Z,88.17
2022-12-03T20:12:54.528Z,88.03
2022-12-03T20:17:57.367Z,88.04
2022-12-03T20:23:00.080Z,87.87
2022-12-03T20:28:02.785Z,87.89
2022-12-03T20:33:05.572Z,87.82
2022-12-03T20:38:08.282Z,88.08
2022-12-03T20:43:11.074Z,88.03
2022-12-03T20:48:14.169Z,88.28
2022-12-03T20:53:24.642Z,88.28
2022-12-03T20:58:28.706Z,88.28
2022-12-03T21:03:31.492Z,88.32
2022-12-03T21:08:41.399Z,88.43
2022-12-03T21:13:47.966Z,88.32
2022-12-03T21:18:50.727Z,88.66
2022-12-03T21:23:53.635Z,88.61
2022-12-03T21:28:56.355Z,89.07
2022-12-03T21:33:59.150Z,89.19
2022-12-03T21:39:01.937Z,88.85
2022-12-03T21:44:04.752Z,88.23
2022-12-03T21:49:07.669Z,88.28
2022-12-03T21:54:10.569Z,88.48
2022-12-03T21:59:13.270Z,88.97
2022-12-03T22:04:15.950Z,88.99
2022-12-03T22:09:24.804Z,89.10
2022-12-03T22:14:30.006Z,89.39
2022-12-03T22:19:32.767Z,88.66
2022-12-03T22:24:35.568Z,89.07
2022-12-03T22:29:38.317Z,89.09
2022-12-03T22:34:44.218Z,89.42
2022-12-03T22:39:47.033Z,89.89
2022-12-03T22:44:49.722Z,89.89
2022-12-03T22:49:52.638Z,89.50
2022-12-03T22:54:55.652Z,89.30
2022-12-03T22:59:58.352Z,89.73
2022-12-03T23:05:01.154Z,89.76
2022-12-03T23:10:04.736Z,90.13
2022-12-03T23:15:08.510Z,89.85
2022-12-03T23:20:12.357Z,89.65
2022-12-03T23:25:15.532Z,89.50
2022-12-03T23:30:18.425Z,89.48
2022-12-03T23:35:21.375Z,90.02
2022-12-03T23:40:24.246Z,90.19
2022-12-03T23:45:26.993Z,90.25
2022-12-03T23:50:30.314Z,90.44
2022-12-03T23:55:33.779Z,90.62
